Map

Track Data

SID SEASON NUMBER BASIN SUBBASIN NAME ISO_TIME NATURE LAT LON WMO_WIND WMO_PRES WMO_AGENCY TRACK_TYPE DIST2LAND LANDFALL IFLAG USA_AGENCY USA_ATCF_ID USA_LAT USA_LON USA_RECORD USA_STATUS USA_WIND USA_PRES USA_SSHS USA_R34_NE USA_R34_SE USA_R34_SW USA_R34_NW USA_R50_NE USA_R50_SE USA_R50_SW USA_R50_NW USA_R64_NE USA_R64_SE USA_R64_SW USA_R64_NW USA_POCI USA_ROCI USA_RMW USA_EYE TOKYO_LAT TOKYO_LON TOKYO_GRADE TOKYO_WIND TOKYO_PRES TOKYO_R50_DIR TOKYO_R50_LONG TOKYO_R50_SHORT TOKYO_R30_DIR TOKYO_R30_LONG TOKYO_R30_SHORT TOKYO_LAND CMA_LAT CMA_LON CMA_CAT CMA_WIND CMA_PRES HKO_LAT HKO_LON HKO_CAT HKO_WIND HKO_PRES NEWDELHI_LAT NEWDELHI_LON NEWDELHI_GRADE NEWDELHI_WIND NEWDELHI_PRES NEWDELHI_CI NEWDELHI_DP NEWDELHI_POCI REUNION_LAT REUNION_LON REUNION_TYPE REUNION_WIND REUNION_PRES REUNION_TNUM REUNION_CI REUNION_RMW REUNION_R34_NE REUNION_R34_SE REUNION_R34_SW REUNION_R34_NW REUNION_R50_NE REUNION_R50_SE REUNION_R50_SW REUNION_R50_NW REUNION_R64_NE REUNION_R64_SE REUNION_R64_SW REUNION_R64_NW BOM_LAT BOM_LON BOM_TYPE BOM_WIND BOM_PRES BOM_TNUM BOM_CI BOM_RMW BOM_R34_NE BOM_R34_SE BOM_R34_SW BOM_R34_NW BOM_R50_NE BOM_R50_SE BOM_R50_SW BOM_R50_NW BOM_R64_NE BOM_R64_SE BOM_R64_SW BOM_R64_NW BOM_ROCI BOM_POCI BOM_EYE BOM_POS_METHOD BOM_PRES_METHOD NADI_LAT NADI_LON NADI_CAT NADI_WIND NADI_PRES WELLINGTON_LAT WELLINGTON_LON WELLINGTON_WIND WELLINGTON_PRES DS824_LAT DS824_LON DS824_STAGE DS824_WIND DS824_PRES TD9636_LAT TD9636_LON TD9636_STAGE TD9636_WIND TD9636_PRES TD9635_LAT TD9635_LON TD9635_WIND TD9635_PRES TD9635_ROCI NEUMANN_LAT NEUMANN_LON NEUMANN_CLASS NEUMANN_WIND NEUMANN_PRES MLC_LAT MLC_LON MLC_CLASS MLC_WIND MLC_PRES USA_GUST BOM_GUST BOM_GUST_PER REUNION_GUST REUNION_GUST_PER USA_SEAHGT USA_SEARAD_NE USA_SEARAD_SE USA_SEARAD_SW USA_SEARAD_NW STORM_SPEED STORM_DIR
1997232N20088 1997 70 NI BB NOT_NAMED 1997-08-20 03:00:00 NR 20.5000 87.5000 25 992 newdelhi main 56 15 ____O_________ -1 20.5000 87.5000 D 25 992 1.50000 4 9 270
1997232N20088 1997 70 NI BB NOT_NAMED 1997-08-20 06:00:00 NR 20.5000 87.0000 30 990 newdelhi main 15 0 ____O_________ -1 20.5000 87.0000 DD 30 990 2.00000 6 7 267
1997232N20088 1997 70 NI BB NOT_NAMED 1997-08-20 09:00:00 NR 20.4655 86.7327 main 0 0 ____P_________ -1 20.4655 86.7327 DD 5 270
1997232N20088 1997 70 NI BB NOT_NAMED 1997-08-20 12:00:00 NR 20.5000 86.5000 newdelhi main 0 0 ____O_________ -1 20.5000 86.5000 DD 0.00000 7 293
1997232N20088 1997 70 NI BB NOT_NAMED 1997-08-20 15:00:00 NR 20.7504 86.0007 main 0 0 ____P_________ -1 20.7504 86.0007 DD 11 298
1997232N20088 1997 70 NI BB NOT_NAMED 1997-08-20 18:00:00 NR 21.0000 85.5000 newdelhi main 0 0 ____O_________ -1 21.0000 85.5000 DD 0.00000 7 292
1997232N20088 1997 70 NI BB NOT_NAMED 1997-08-20 21:00:00 NR 21.0337 85.2668 main 0 0 ____P_________ -1 21.0337 85.2668 DD 5 270
1997232N20088 1997 70 NI BB NOT_NAMED 1997-08-21 00:00:00 NR 21.0000 85.0000 newdelhi main 0 0 ____O_________ -1 21.0000 85.0000 DD 0.00000 7 267
1997232N20088 1997 70 NI BB NOT_NAMED 1997-08-21 03:00:00 NR 21.0000 84.5000 newdelhi main 0 0 ____O_________ -1 21.0000 84.5000 DD 0.00000 9 270
1997232N20088 1997 70 NI BB NOT_NAMED 1997-08-21 06:00:00 NR 21.0000 84.0000 newdelhi main 0 0 ____O_________ -1 21.0000 84.0000 DD 0.00000 9 268
1997232N20088 1997 70 NI BB NOT_NAMED 1997-08-21 09:00:00 NR 20.9658 83.4997 main 0 0 ____P_________ -1 20.9658 83.4997 DD 9 270
1997232N20088 1997 70 NI BB NOT_NAMED 1997-08-21 12:00:00 NR 21.0000 83.0000 newdelhi main 0 0 ____O_________ -1 21.0000 83.0000 DD 0.00000 10 287
1997232N20088 1997 70 NI BB NOT_NAMED 1997-08-21 15:00:00 NR 21.2499 82.5006 main 0 0 ____P_________ -1 21.2499 82.5006 DD 11 298
1997232N20088 1997 70 NI BB NOT_NAMED 1997-08-21 18:00:00 NR 21.5000 82.0000 newdelhi main 0 0 ____O_________ -1 21.5000 82.0000 DD 0.00000 11 285
1997232N20088 1997 70 NI BB NOT_NAMED 1997-08-21 21:00:00 NR 21.5344 81.3974 main 0 0 ____P_________ -1 21.5344 81.3974 DD 9 270
1997232N20088 1997 70 NI BB NOT_NAMED 1997-08-22 00:00:00 NR 21.5000 81.0000 newdelhi main 0 0 ____O_________ -1 21.5000 81.0000 DD 0.00000 4 265
1997232N20088 1997 70 NI BB NOT_NAMED 1997-08-22 03:00:00 NR 21.5000 81.0000 newdelhi main 0 0 ____O_________ -1 21.5000 81.0000 DD 0.00000 5 270
1997232N20088 1997 70 NI BB NOT_NAMED 1997-08-22 06:00:00 NR 21.5000 80.5000 newdelhi main 0 0 ____O_________ -1 21.5000 80.5000 DD 0.00000 10 282
1997232N20088 1997 70 NI BB NOT_NAMED 1997-08-22 09:00:00 NR 21.6990 79.9663 main 0 0 ____P_________ -1 21.6990 79.9663 DD 11 298
1997232N20088 1997 70 NI BB NOT_NAMED 1997-08-22 12:00:00 NR 22.0000 79.5000 newdelhi main 0 0 ____O_________ -1 22.0000 79.5000 DD 0.00000 9 308
1997232N20088 1997 70 NI BB NOT_NAMED 1997-08-22 15:00:00 NR 22.2497 79.2122 main 0 0 ____P_________ -1 22.2497 79.2122 DD 7 317
1997232N20088 1997 70 NI BB NOT_NAMED 1997-08-22 18:00:00 NR 22.5000 79.0000 newdelhi main 0 0 ____O_________ -1 22.5000 79.0000 DD 0.00000 7 325
1997232N20088 1997 70 NI BB NOT_NAMED 1997-08-22 21:00:00 NR 22.8009 78.8012 main 0 0 ____P_________ -1 22.8009 78.8012 DD 7 317
1997232N20088 1997 70 NI BB NOT_NAMED 1997-08-23 00:00:00 NR 23.0000 78.5000 newdelhi main 0 0 ____O_________ -1 23.0000 78.5000 DD 0.00000 8 285
1997232N20088 1997 70 NI AS NOT_NAMED 1997-08-23 03:00:00 NR 23.0000 78.0000 newdelhi main 0 0 ____O_________ -1 23.0000 78.0000 DD 0.00000 9 270
1997232N20088 1997 70 NI AS NOT_NAMED 1997-08-23 06:00:00 NR 23.0000 77.5000 newdelhi main 0 0 ____O_________ -1 23.0000 77.5000 DD 0.00000 8 285
1997232N20088 1997 70 NI AS NOT_NAMED 1997-08-23 09:00:00 NR 23.1987 77.1650 main 0 0 ____P_________ -1 23.1987 77.1650 DD 7 317
1997232N20088 1997 70 NI AS NOT_NAMED 1997-08-23 12:00:00 NR 23.5000 77.0000 newdelhi main 0 0 ____O_________ -1 23.5000 77.0000 DD 0.00000 6 341
1997232N20088 1997 70 NI AS NOT_NAMED 1997-08-23 15:00:00 NR 23.7499 76.9623 main 0 0 ____P_________ -1 23.7499 76.9623 DD 5 2
1997232N20088 1997 70 NI AS NOT_NAMED 1997-08-23 18:00:00 NR 24.0000 77.0000 newdelhi main 0 0 ____O_________ -1 24.0000 77.0000 DD 0.00000 6 13
1997232N20088 1997 70 NI AS NOT_NAMED 1997-08-23 21:00:00 NR 24.3009 77.1021 main 0 0 ____P_________ -1 24.3009 77.1021 DD 5 2
1997232N20088 1997 70 NI AS NOT_NAMED 1997-08-24 00:00:00 NR 24.5000 77.0000 newdelhi main 0 0 ____O_________ -1 24.5000 77.0000 DD 0.00000 6 290
1997232N20088 1997 70 NI AS NOT_NAMED 1997-08-24 03:00:00 NR 24.5000 76.5000 newdelhi main 0 0 ____O_________ -1 24.5000 76.5000 DD 0.00000 5 270
1997232N20088 1997 70 NI AS NOT_NAMED 1997-08-24 06:00:00 NR 24.5000 76.5000 newdelhi main 0 0 ____O_________ -1 24.5000 76.5000 DD 0.00000 3 318
1997232N20088 1997 70 NI AS NOT_NAMED 1997-08-24 09:00:00 NR 24.6990 76.3013 main 0 0 ____P_________ -1 24.6990 76.3013 DD 7 318
1997232N20088 1997 70 NI AS NOT_NAMED 1997-08-24 12:00:00 NR 25.0000 76.0000 newdelhi main 0 0 ____O_________ -1 25.0000 76.0000 DD 0.00000 7 318
1997232N20088 1997 70 NI AS NOT_NAMED 1997-08-24 15:00:00 NR 25.2500 75.7499 main 0 0 ____P_________ -1 25.2500 75.7499 DD 7 318
1997232N20088 1997 70 NI AS NOT_NAMED 1997-08-24 18:00:00 NR 25.5000 75.5000 newdelhi main 0 0 ____O_________ -1 25.5000 75.5000 DD 0.00000 7 318
1997232N20088 1997 70 NI AS NOT_NAMED 1997-08-24 21:00:00 NR 25.8012 75.1991 main 0 0 ____P_________ -1 25.8012 75.1991 DD 7 318
1997232N20088 1997 70 NI AS NOT_NAMED 1997-08-25 00:00:00 NR 26.0000 75.0000 newdelhi main 0 0 ____O_________ -1 26.0000 75.0000 DD 0.00000 3 319
1997232N20088 1997 70 NI AS NOT_NAMED 1997-08-25 03:00:00 NR 26.0000 75.0000 newdelhi main 0 0 ____O_________ -1 26.0000 75.0000 DD 0.00000 0 0
1997232N20088 1997 70 NI AS NOT_NAMED 1997-08-25 06:00:00 NR 26.0000 75.0000 newdelhi main 0 0 ____O_________ -1 26.0000 75.0000 DD 0.00000 3 314
1997232N20088 1997 70 NI AS NOT_NAMED 1997-08-25 09:00:00 NR 26.1991 74.7675 main 0 0 ____P_________ -1 26.1991 74.7675 DD 7 318
1997232N20088 1997 70 NI AS NOT_NAMED 1997-08-25 12:00:00 NR 26.5000 74.5000 newdelhi main 0 0 ____O_________ -1 26.5000 74.5000 DD 0.00000 6 338
1997232N20088 1997 70 NI AS NOT_NAMED 1997-08-25 15:00:00 NR 26.7874 74.4997 main 0 0 ____P_________ -1 26.7874 74.4997 DD 5 2
1997232N20088 1997 70 NI AS NOT_NAMED 1997-08-25 18:00:00 NR 27.0000 74.5000 newdelhi main 0 0 ____O_________ -1 27.0000 74.5000 DD 0.00000 3 316
1997232N20088 1997 70 NI AS NOT_NAMED 1997-08-25 21:00:00 NR 27.0343 74.2329 main 0 0 ____P_________ -1 27.0343 74.2329 DD 4 270
1997232N20088 1997 70 NI AS NOT_NAMED 1997-08-26 00:00:00 NR 27.0000 74.0000 newdelhi main 0 0 ____O_________ -1 27.0000 74.0000 DD 0.00000 2 261
1997232N20088 1997 70 NI AS NOT_NAMED 1997-08-26 03:00:00 NR 27.0000 74.0000 newdelhi main 0 0 ____O_________ -1 27.0000 74.0000 DD 0.00000 0 0
1997232N20088 1997 70 NI AS NOT_NAMED 1997-08-26 06:00:00 NR 27.0000 74.0000 newdelhi main 0 0 ____O_________ -1 27.0000 74.0000 DD 0.00000 1 5
1997232N20088 1997 70 NI AS NOT_NAMED 1997-08-26 09:00:00 NR 27.1307 74.0000 main 0 0 ____P_________ -1 27.1307 74.0000 DD 5 2
1997232N20088 1997 70 NI AS NOT_NAMED 1997-08-26 12:00:00 NR 27.5000 74.0000 newdelhi main 0 0 ____O_________ -1 27.5000 74.0000 DD 0.00000 11 1
1997232N20088 1997 70 NI AS NOT_NAMED 1997-08-26 15:00:00 NR 28.1810 74.0000 main 0 0 ____P_________ -1 28.1810 74.0000 DD 15 0
1997232N20088 1997 70 NI AS NOT_NAMED 1997-08-26 18:00:00 NR 29.0000 74.0000 newdelhi main 0 0 ____O_________ -1 29.0000 74.0000 D 0.00000 17 0
1997232N20088 1997 70 NI AS NOT_NAMED 1997-08-26 21:00:00 NR 29.8450 74.0000 main 0 0 ____P_________ -1 29.8450 74.0000 D 16 1
1997232N20088 1997 70 NI AS NOT_NAMED 1997-08-27 00:00:00 NR 30.5845 74.0000 main 0 0 ____P_________ -1 30.5845 74.0000 D 12 0
1997232N20088 1997 70 NI AS NOT_NAMED 1997-08-27 03:00:00 NR 31.0000 74.0000 newdelhi main 0 0 ____O_________ -1 31.0000 74.0000 D 0.00000 4 0
1997232N20088 1997 70 NI AS NOT_NAMED 1997-08-27 06:00:00 NR 31.0000 74.0000 newdelhi main 0 ____O_________ -1 31.0000 74.0000 D 0.00000 0 0

About IBTrACS Database

This database is a web-friendly format of International Best Track Archive for Climate Stewardship (IBTrACS), a global best track data archive curated by NOAA dating back to 1842.

Updated: 2021-12-06